Byron, Oklahoma
Current Conditions -  °F | °C
As of 9:15 PM on Thursday 27 Nov 2014 (Local Time) from KAVK Reporting Station
Few Clouds Few Clouds  
Wind Chill: 29°   Ceiling: Unl
Heat Index: 37°   Visibility: 10mi
Dew Point: 27°   Wind: 13mph
Humidity: 65%   Direction: 180°S
Pressure: 30.19"   Gusts: NA
Location:  36.916°N, 98.4369°W
Report Text: KAVK 280315Z AUTO 18011KT 10SM FEW034 03/M03 A3019 RMK AO2
Loading
Personal Weather Stations






























Interactive Weather Map New forecast layout! Learn more

10-Day Weather Forecast

Advertisements
Track Severe Weather on mobile